createdAt,value
2022-09-09T06:03:25.512Z,15.70
2022-09-09T06:25:15.076Z,15.70
2022-09-09T06:52:55.956Z,15.90
2022-09-09T06:57:52.120Z,16.00
2022-09-09T07:26:42.227Z,16.90
2022-09-09T07:31:37.731Z,16.80
2022-09-09T08:02:17.475Z,16.70
2022-09-09T08:07:11.920Z,16.80
2022-09-09T08:12:17.639Z,16.90
2022-09-09T08:17:11.440Z,16.90
2022-09-09T08:22:07.089Z,17.00
2022-09-09T08:27:02.831Z,17.10
2022-09-09T08:31:58.505Z,17.10
2022-09-09T08:36:54.164Z,17.10
2022-09-09T08:42:20.184Z,17.00
2022-09-09T08:47:21.622Z,17.00
2022-09-09T08:52:21.065Z,17.20
2022-09-09T08:57:22.120Z,17.30
2022-09-09T09:02:21.969Z,17.40
2022-09-09T09:07:32.692Z,17.50
2022-09-09T09:12:32.227Z,17.50
2022-09-09T09:17:32.432Z,17.60
2022-09-09T09:22:34.266Z,17.80
2022-09-09T09:27:36.664Z,18.10
2022-09-09T09:32:38.709Z,18.50
2022-09-09T09:37:37.308Z,19.00
2022-09-09T09:42:34.613Z,19.50
2022-09-09T09:47:28.609Z,19.90
2022-09-09T09:52:38.561Z,20.10
2022-09-09T09:57:36.693Z,20.30
2022-09-09T10:02:41.900Z,20.60
2022-09-09T10:07:38.640Z,20.90
2022-09-09T10:12:46.260Z,21.50
2022-09-09T10:17:46.782Z,21.90
2022-09-09T10:22:47.235Z,21.90
2022-09-09T10:27:58.946Z,21.70
2022-09-09T10:33:06.791Z,21.70
2022-09-09T10:38:19.762Z,21.60
2022-09-09T10:43:27.743Z,21.10
2022-09-09T10:48:44.410Z,20.80
2022-09-09T10:53:46.769Z,20.40
2022-09-09T10:58:46.843Z,20.30
2022-09-09T11:03:43.324Z,20.30
2022-09-09T11:08:40.750Z,20.30
2022-09-09T11:13:44.520Z,20.20
2022-09-09T11:18:43.991Z,20.10
2022-09-09T11:23:44.610Z,20.00
2022-09-09T11:28:51.844Z,20.10
2022-09-09T11:34:07.221Z,20.10
2022-09-09T11:39:09.763Z,20.10
2022-09-09T11:44:14.501Z,20.20
2022-09-09T11:49:27.810Z,20.30
2022-09-09T11:54:33.192Z,20.60
2022-09-09T11:59:30.240Z,20.70
2022-09-09T12:04:53.712Z,20.60
2022-09-09T12:10:02.348Z,20.40
2022-09-09T12:15:30.022Z,20.50
2022-09-09T12:20:28.909Z,20.60
2022-09-09T12:25:30.806Z,20.70
2022-09-09T12:30:27.789Z,20.70
2022-09-09T12:35:26.853Z,20.60
2022-09-09T12:40:23.834Z,20.60
2022-09-09T12:45:21.547Z,20.60
2022-09-09T12:50:20.729Z,20.60
2022-09-09T12:55:26.002Z,20.50
2022-09-09T13:00:21.666Z,20.40
2022-09-09T13:05:21.641Z,20.30
2022-09-09T13:10:25.524Z,20.30
2022-09-09T13:15:32.458Z,20.20
2022-09-09T13:20:27.164Z,20.10
2022-09-09T13:25:25.339Z,20.20
2022-09-09T13:30:25.347Z,20.20
2022-09-09T13:35:27.329Z,20.20
2022-09-09T13:40:23.408Z,20.20
2022-09-09T13:45:21.617Z,20.50
2022-09-09T13:50:22.415Z,20.90
2022-09-09T13:55:17.684Z,21.50
2022-09-09T14:00:14.636Z,21.50
2022-09-09T14:05:08.757Z,21.40
2022-09-09T14:10:02.952Z,21.10
2022-09-09T14:14:58.358Z,21.00
2022-09-09T14:19:52.254Z,20.90
2022-09-09T14:24:45.797Z,20.90
2022-09-09T14:29:39.477Z,20.80
2022-09-09T14:34:34.769Z,20.70
2022-09-09T14:39:28.266Z,20.50
2022-09-09T14:44:21.704Z,20.50
2022-09-09T14:49:15.229Z,20.30
2022-09-09T14:54:11.980Z,20.30
2022-09-09T14:59:06.135Z,20.20
2022-09-09T15:04:01.640Z,23.00
2022-09-09T15:08:58.920Z,27.80
2022-09-09T15:13:55.564Z,26.30
2022-09-09T15:18:52.747Z,27.30
2022-09-09T15:23:46.509Z,25.10
2022-09-09T15:28:40.732Z,23.50
2022-09-09T15:33:37.822Z,22.50
2022-09-09T15:38:33.816Z,21.80
2022-09-09T15:43:27.431Z,21.40
2022-09-09T15:48:20.897Z,21.10
2022-09-09T15:53:15.697Z,21.00
2022-09-09T15:58:09.152Z,21.00
2022-09-09T16:03:02.638Z,21.20
2022-09-09T16:07:56.115Z,21.40
2022-09-09T16:12:52.810Z,21.90
2022-09-09T16:17:47.224Z,23.10
2022-09-09T16:22:41.229Z,22.50
2022-09-09T16:27:35.279Z,21.60
2022-09-09T16:32:30.990Z,21.00
2022-09-09T16:37:24.587Z,20.70
2022-09-09T16:42:18.175Z,20.50
2022-09-09T16:47:11.843Z,20.30
2022-09-09T16:52:06.800Z,20.20
2022-09-09T16:57:01.755Z,20.10
